createdAt,value
2019-04-11T07:37:19.092Z,6.95
2019-04-11T07:40:09.514Z,6.32
2019-04-11T07:42:59.410Z,6.25
2019-04-11T07:45:30.194Z,6.62
2019-04-11T07:48:12.866Z,6.93
2019-04-11T07:50:44.528Z,6.90
2019-04-11T07:53:17.943Z,6.40
2019-04-11T07:55:49.636Z,6.77
2019-04-11T07:58:23.802Z,7.22
2019-04-11T08:00:59.279Z,7.19
2019-04-11T08:03:49.192Z,7.45
2019-04-11T08:06:39.040Z,7.56
2019-04-11T08:09:13.186Z,7.30
2019-04-11T08:11:46.222Z,7.37
2019-04-11T08:14:37.602Z,7.69
2019-04-11T08:17:11.463Z,7.13
2019-04-11T08:20:00.678Z,7.11
2019-04-11T08:22:39.577Z,6.55
2019-04-11T08:25:15.308Z,6.57
2019-04-11T08:28:00.256Z,6.41
2019-04-11T08:30:28.041Z,6.48
2019-04-11T08:33:02.410Z,6.43
2019-04-11T08:35:36.622Z,6.06
2019-04-11T08:38:22.490Z,6.77
2019-04-11T08:41:02.973Z,7.57
2019-04-11T08:43:35.376Z,8.09
2019-04-11T08:46:15.012Z,7.93
2019-04-11T08:48:46.230Z,8.51
2019-04-11T08:51:19.293Z,9.05
2019-04-11T08:54:09.112Z,8.28
2019-04-11T08:56:43.192Z,7.35
2019-04-11T08:59:22.321Z,7.25
2019-04-11T09:01:53.970Z,7.45
2019-04-11T09:04:43.941Z,7.35
2019-04-11T09:07:17.101Z,7.70
2019-04-11T09:10:07.485Z,8.58
2019-04-11T09:12:40.741Z,8.40
2019-04-11T09:15:35.238Z,7.42
2019-04-11T09:18:10.381Z,7.52
2019-04-11T09:20:47.800Z,7.84
2019-04-11T09:23:19.764Z,7.81
2019-04-11T09:26:01.719Z,7.88
2019-04-11T09:28:35.625Z,7.65
2019-04-11T09:31:09.180Z,7.75
2019-04-11T09:33:57.713Z,7.51
2019-04-11T09:36:49.308Z,7.36
2019-04-11T09:39:35.053Z,7.14
2019-04-11T09:42:10.151Z,7.11
2019-04-11T09:44:47.208Z,7.68
2019-04-11T09:47:30.477Z,7.84
2019-04-11T09:50:12.981Z,7.47
2019-04-11T09:52:49.573Z,7.19
2019-04-11T09:55:34.934Z,7.20
2019-04-11T09:58:08.961Z,7.39
2019-04-11T10:00:45.549Z,7.27
2019-04-11T10:03:19.636Z,7.01
2019-04-11T10:05:52.951Z,7.27
2019-04-11T10:08:41.735Z,7.49
2019-04-11T10:11:32.490Z,7.70
2019-04-11T10:14:07.257Z,7.93
2019-04-11T10:16:44.350Z,7.84
2019-04-11T10:19:27.762Z,7.33
2019-04-11T10:22:02.780Z,6.99
2019-04-11T10:24:37.012Z,7.32
2019-04-11T10:27:10.092Z,7.54
2019-04-11T10:29:59.369Z,7.56
2019-04-11T10:32:35.442Z,7.94
2019-04-11T10:35:08.799Z,7.99
2019-04-11T10:37:42.141Z,7.69
2019-04-11T10:40:32.268Z,7.02
2019-04-11T10:43:04.333Z,7.34
2019-04-11T10:45:55.209Z,7.15
2019-04-11T10:48:34.526Z,7.11
2019-04-11T10:51:07.327Z,7.28
2019-04-11T10:53:39.541Z,8.03
2019-04-11T10:56:30.498Z,7.76
2019-04-11T10:59:02.035Z,7.92
2019-04-11T11:01:48.412Z,8.36
2019-04-11T11:04:25.479Z,8.46
2019-04-11T11:07:00.164Z,8.51
2019-04-11T11:09:32.297Z,7.74
2019-04-11T11:12:17.448Z,7.81
2019-04-11T11:15:09.531Z,7.84
2019-04-11T11:18:32.084Z,7.32
2019-04-11T11:20:42.561Z,7.22
2019-04-11T11:23:29.093Z,7.52
2019-04-11T11:26:05.220Z,7.22
2019-04-11T11:28:38.736Z,7.51
2019-04-11T11:31:14.282Z,7.07
2019-04-11T11:33:46.947Z,6.90
2019-04-11T11:36:19.370Z,7.10
2019-04-11T11:39:02.438Z,7.28
2019-04-11T11:41:54.523Z,7.52
2019-04-11T11:44:28.652Z,6.96
2019-04-11T11:47:18.117Z,7.28
2019-04-11T11:49:57.162Z,7.39
2019-04-11T11:52:36.514Z,7.42
2019-04-11T11:55:10.364Z,7.41
2019-04-11T11:57:43.359Z,7.48
2019-04-11T12:00:23.469Z,7.33
2019-04-11T12:02:59.363Z,7.10
2019-04-11T12:05:32.762Z,7.53
2019-04-11T12:08:08.794Z,7.60
2019-04-11T12:10:44.023Z,7.42
2019-04-11T12:13:34.631Z,7.02
2019-04-11T12:16:16.024Z,7.14
2019-04-11T12:18:52.645Z,7.19
2019-04-11T12:21:33.228Z,7.34
2019-04-11T12:24:08.047Z,7.61
2019-04-11T12:26:44.060Z,7.66
2019-04-11T12:29:21.858Z,7.68
2019-04-11T12:31:55.725Z,7.52
2019-04-11T12:34:45.063Z,7.41
2019-04-11T12:37:19.806Z,7.75
2019-04-11T12:40:09.749Z,7.44
2019-04-11T12:42:41.530Z,7.44
2019-04-11T12:45:17.224Z,8.19
2019-04-11T12:47:48.529Z,8.00
2019-04-11T12:50:23.063Z,7.81
2019-04-11T12:53:02.289Z,8.21
2019-04-11T12:55:36.299Z,7.91
2019-04-11T12:58:24.985Z,7.88
2019-04-11T13:01:14.365Z,7.97
2019-04-11T13:04:05.218Z,8.03
2019-04-11T13:06:47.350Z,7.73
2019-04-11T13:09:20.645Z,7.55
2019-04-11T13:12:02.594Z,7.37
2019-04-11T13:14:44.639Z,7.52
2019-04-11T13:17:29.825Z,7.32
2019-04-11T13:20:13.224Z,7.44
2019-04-11T13:22:44.946Z,7.76
2019-04-11T13:25:34.228Z,7.52
2019-04-11T13:28:05.505Z,7.72
2019-04-11T13:30:57.586Z,7.91
2019-04-11T13:33:28.587Z,7.69
2019-04-11T13:36:01.541Z,7.49
2019-04-11T13:38:34.481Z,7.44
2019-04-11T13:41:10.513Z,7.45
2019-04-11T13:43:43.557Z,7.22
2019-04-11T13:46:33.028Z,7.42
2019-04-11T13:49:06.078Z,7.31
2019-04-11T13:51:49.792Z,7.31
2019-04-11T13:54:25.225Z,7.42
2019-04-11T13:57:05.271Z,7.12
2019-04-11T13:59:36.379Z,7.16
2019-04-11T14:02:13.634Z,7.07
2019-04-11T14:04:51.221Z,7.43
2019-04-11T14:07:24.253Z,7.29
2019-04-11T14:10:07.077Z,7.35
2019-04-11T14:12:39.042Z,7.29
2019-04-11T14:15:24.234Z,7.07
2019-04-11T14:18:13.405Z,7.17
2019-04-11T14:20:47.568Z,7.45
2019-04-11T14:23:24.644Z,7.56
2019-04-11T14:26:10.213Z,7.40
2019-04-11T14:28:43.326Z,7.34
2019-04-11T14:31:33.224Z,7.14
2019-04-11T14:37:22.130Z,6.93
2019-04-11T14:39:58.411Z,7.06
2019-04-11T14:42:42.204Z,7.11
2019-04-11T14:45:14.370Z,6.99
2019-04-11T14:48:03.650Z,6.97
2019-04-11T14:50:40.796Z,6.87
2019-04-11T14:53:31.063Z,6.95
2019-04-11T14:56:04.390Z,7.15
2019-04-11T14:58:43.307Z,7.02
2019-04-11T15:01:16.601Z,7.09
2019-04-11T15:04:01.835Z,7.17
2019-04-11T15:06:38.220Z,7.27
2019-04-11T15:09:09.266Z,7.14
2019-04-11T15:11:55.201Z,7.08
2019-04-11T15:14:47.533Z,6.88
2019-04-11T15:17:19.667Z,7.07
2019-04-11T15:20:02.334Z,6.96
2019-04-11T15:22:50.245Z,7.03
2019-04-11T15:25:28.236Z,7.34
2019-04-11T15:28:08.064Z,6.88
2019-04-11T15:30:50.518Z,6.98
2019-04-11T15:33:30.265Z,7.03
2019-04-11T15:36:03.541Z,6.76
2019-04-11T15:38:53.341Z,6.73
2019-04-11T15:41:25.484Z,6.82
2019-04-11T15:44:15.031Z,6.83
2019-04-11T15:46:47.905Z,6.66
2019-04-11T15:49:29.839Z,6.85
2019-04-11T15:51:56.038Z,6.81
2019-04-11T15:54:32.462Z,6.64
2019-04-11T15:57:05.831Z,6.60
2019-04-11T15:59:37.224Z,6.62
2019-04-11T16:02:25.395Z,6.56
2019-04-11T16:04:59.350Z,6.45
2019-04-11T16:07:52.214Z,6.64
2019-04-11T16:10:25.420Z,6.76
2019-04-11T16:13:14.839Z,6.80
2019-04-11T16:15:50.648Z,6.62
2019-04-11T16:18:33.086Z,6.67
2019-04-11T16:21:24.290Z,6.55
2019-04-11T16:23:57.609Z,6.77
2019-04-11T16:26:34.036Z,6.79
2019-04-11T16:29:19.299Z,6.66
2019-04-11T16:31:51.203Z,6.45
2019-04-11T16:34:48.391Z,6.51
2019-04-11T16:37:17.565Z,6.56
2019-04-11T16:40:04.465Z,6.41
2019-04-11T16:42:37.482Z,6.17
2019-04-11T16:45:20.035Z,6.28
2019-04-11T16:47:56.269Z,6.45
2019-04-11T16:50:26.377Z,6.33
2019-04-11T16:52:57.975Z,6.46
2019-04-11T16:55:29.256Z,6.53
2019-04-11T16:58:01.037Z,6.35
2019-04-11T17:00:32.424Z,6.12
2019-04-11T17:03:04.068Z,6.38
2019-04-11T17:05:37.227Z,6.29
2019-04-11T17:08:11.227Z,6.20
2019-04-11T17:10:59.595Z,6.45
